Latest Coastal Weather Observations for Maningrida Airport

IDD60701

Issued at 1:05 pm CST Sunday 26 October 2014 (issued every 10 minutes, with the page automatically refreshed every 10 minutes)

About coastal observations | Map of coastal stations | Coastal observations for NT | Marine services | Other Formats
Station Details ID: 014405 Name: MANINGRIDA AIRPORT Lat: -12.06 Lon: 134.23 Height: 28.1 m
Data from the previous 72 hours. | See also: Recent months at Maningrida Airport
Date/Time
CST
Temp

°C
Wind Pressure Rain
since 9am
mm
Weather Cloud Vis
km
Sea
Height
m
Swell
Dir
 
Speed
knots
Gust
knots
hPa Trend Height
m
Period
s
Dir
26/01:00pm 30.5 NE 13 19 1012.2 - 0.0 - - 10 - - - -
26/12:30pm 30.8 NE 11 19 1012.6 - 0.0 - - 10 - - - -
26/12:00pm 30.0 NE 12 17 1013.2 - 0.0 - - 10 - - - -
26/11:30am 30.4 NE 12 18 1013.5 - 0.0 - - 10 - - - -
26/11:00am 30.6 NE 11 17 1013.9 - 0.0 - - 10 - - - -
26/10:30am 30.5 ENE 10 16 1014.1 - 0.0 - - 10 - - - -
26/10:00am 30.1 ENE 8 13 1014.5 - 0.0 - - 10 - - - -
26/09:30am 29.1 E 8 13 1014.6 - 0.0 - - 10 - - - -
26/09:00am 27.7 E 8 11 1014.7 - 0.0 - - 10 - - - -
26/08:30am 26.6 SE 9 12 1014.6 - 0.0 - - 10 - - - -
26/08:00am 25.8 ESE 6 10 1014.5 - 0.0 - - 10 - - - -
26/07:30am 24.3 SE 4 6 1014.1 - 0.0 - - 10 - - - -
26/07:00am 22.5 SSW 4 5 1013.9 - 0.0 - - 10 - - - -
26/06:30am 21.9 SSE 5 6 1013.5 - 0.0 - - 10 - - - -
26/06:00am 22.0 SE 5 7 1013.1 - 0.0 - - 10 - - - -
26/05:30am 22.0 ESE 6 8 1012.7 - 0.0 - - 10 - - - -
26/05:00am 22.2 ESE 4 5 1012.5 - 0.0 - - 10 - - - -
26/04:30am 22.5 SE 5 6 1012.3 - 0.0 - - 10 - - - -
26/04:00am 22.8 ESE 5 6 1012.4 - 0.0 - - 10 - - - -
26/03:30am 23.5 ESE 5 7 1012.4 - 0.0 - - 10 - - - -
26/03:00am 24.1 E 6 9 1012.6 - 0.0 - Mostly clear 10 - - - -
26/02:30am 23.9 ESE 5 6 1012.8 - 0.0 - Partly cloudy 10 - - - -
26/02:00am 23.8 ESE 4 6 1013.1 - 0.0 - - 10 - - - -
26/01:30am 24.0 SE 4 5 1013.3 - 0.0 - - 10 - - - -
26/01:00am 24.2 SSE 5 6 1013.5 - 0.0 - Partly cloudy 10 - - - -
26/12:30am 24.3 S 4 5 1013.8 - 0.0 - Partly cloudy 10 - - - -
26/12:00am 24.4 SSE 3 3 1013.9 - 0.0 - Mostly clear 10 - - - -
 
Date/Time
CST
Temp

°C
Wind Pressure Rain
since 9am
mm
Weather Cloud Vis
km
Sea
Height
m
Swell
Dir
 
Speed
knots
Gust
knots
hPa Trend Height
m
Period
s
Dir
25/11:30pm 25.1 E 3 3 1014.1 - 0.0 - Partly cloudy 10 - - - -
25/11:00pm 26.0 ENE 3 4 1014.0 - 0.0 - - 10 - - - -
25/10:30pm 26.1 E 1 4 1014.0 - 0.0 - - 10 - - - -
25/10:00pm 26.5 E 3 4 1013.9 - 0.0 - - 10 - - - -
25/09:30pm 26.8 ENE 3 5 1013.6 - 0.0 - Partly cloudy 10 - - - -
25/09:00pm 26.9 NE 4 6 1013.3 - 0.0 - Partly cloudy 10 - - - -
25/08:30pm 26.9 NE 4 6 1013.0 - 0.0 - - 10 - - - -
25/08:00pm 27.0 NE 4 6 1012.6 - 0.0 - - 10 - - - -
25/07:30pm 27.2 NNE 5 7 1012.3 - 0.0 - - 10 - - - -
25/07:00pm 27.4 NNE 6 9 1012.0 - 0.0 - - 10 - - - -
25/06:30pm 27.6 NNE 8 11 1011.7 - 0.0 - Partly cloudy 10 - - - -
25/06:00pm 28.2 NNE 9 12 1011.5 - 0.0 - - 10 - - - -
25/05:30pm 28.6 NNE 10 15 1011.4 - 0.0 - - 10 - - - -
25/05:00pm 29.4 NNE 11 16 1011.2 - 0.0 - - 10 - - - -
25/04:30pm 29.2 NNE 11 16 1011.0 - 0.0 - - 10 - - - -
25/04:00pm 30.2 NNE 10 15 1011.2 - 0.0 - - 10 - - - -
25/03:30pm 31.0 NNE 12 16 1011.5 - 0.0 - - 10 - - - -
25/03:00pm 31.6 NNE 12 17 1011.6 - 0.0 - - 10 - - - -
25/02:30pm 31.9 NNE 12 17 1011.9 - 0.0 - - 10 - - - -
25/02:00pm 30.8 NE 12 17 1012.2 - 0.0 - - 10 - - - -
25/01:30pm 31.3 NE 13 19 1012.7 - 0.0 - - 10 - - - -
25/01:00pm 31.2 NE 14 21 1013.1 - 0.0 - - 10 - - - -
25/12:30pm 31.7 ENE 11 19 1013.4 - 0.0 - - 10 - - - -
25/12:00pm 30.2 ENE 13 18 1013.8 - 0.0 - - 10 - - - -
25/11:30am 30.7 NE 12 17 1014.1 - 0.0 - - 10 - - - -
25/11:00am 31.2 ENE 11 15 1014.4 - 0.0 - Partly cloudy 10 - - - -
25/10:30am 31.6 ENE 11 19 1014.4 - 0.0 - Partly cloudy 10 - - - -
25/10:00am 30.6 E 10 16 1014.7 - 0.0 - - 10 - - - -
25/09:30am 30.0 E 8 14 1015.0 - 0.0 - - 10 - - - -
25/09:00am 29.1 E 7 9 1015.4 - 0.0 - - 10 - - - -
25/08:30am 27.5 ESE 7 11 1015.3 - 0.0 - - 10 - - - -
25/08:00am 25.3 ESE 8 11 1015.3 - 0.0 - - 10 - - - -
25/07:30am 24.0 ESE 8 11 1014.8 - 0.0 - - 10 - - - -
25/07:00am 22.5 SE 5 7 1014.4 - 0.0 - Partly cloudy 10 - - - -
25/06:30am 21.0 SSE 5 7 1014.0 - 0.0 - - 10 - - - -
25/06:00am 20.7 SSE 5 6 1013.5 - 0.0 - - 10 - - - -
25/05:30am 20.6 SE 3 5 1013.2 - 0.0 - - 10 - - - -
25/05:00am 20.7 SSE 3 5 1012.9 - 0.0 - - 10 - - - -
25/04:30am 21.4 SE 4 5 1012.6 - 0.0 - - 10 - - - -
25/04:00am 21.6 SSE 3 4 1012.6 - 0.0 - - 10 - - - -
25/03:30am 22.5 SSE 3 5 1012.5 - 0.0 - - 10 - - - -
25/03:00am 22.8 SSE 5 7 1012.5 - 0.0 - - 10 - - - -
25/02:30am 23.2 SE 4 5 1012.7 - 0.0 - - 10 - - - -
25/02:00am 23.9 SE 5 7 1013.1 - 0.0 - - 10 - - - -
25/01:30am 24.9 ESE 5 7 1013.1 - 0.0 - - 10 - - - -
25/01:00am 25.6 ESE 7 10 1013.5 - 0.0 - - 10 - - - -
25/12:30am 26.0 E 7 10 1013.8 - 0.0 - - 10 - - - -
25/12:00am 26.4 E 8 14 1013.9 - 0.0 - Mostly clear 10 - - - -
 
Date/Time
CST
Temp

°C
Wind Pressure Rain
since 9am
mm
Weather Cloud Vis
km
Sea
Height
m
Swell
Dir
 
Speed
knots
Gust
knots
hPa Trend Height
m
Period
s
Dir
24/11:30pm 26.4 E 8 12 1014.0 - 0.0 - Partly cloudy 10 - - - -
24/11:00pm 26.5 E 8 12 1014.1 - 0.0 - Partly cloudy 10 - - - -
24/10:30pm 26.8 E 8 13 1014.0 - 0.0 - Partly cloudy 10 - - - -
24/10:00pm 26.9 E 9 14 1013.7 - 0.0 - Cloudy 10 - - - -
24/09:30pm 27.0 ENE 10 15 1013.3 - 0.0 - Partly cloudy 10 - - - -
24/09:00pm 27.0 ENE 9 13 1012.9 - 0.0 - Cloudy 10 - - - -
24/08:30pm 27.0 ENE 10 17 1012.2 - 0.0 - Partly cloudy 10 - - - -
24/08:00pm 27.1 ENE 10 14 1011.6 - 0.0 - Partly cloudy 10 - - - -
24/07:30pm 27.2 ENE 9 15 1011.1 - 0.0 - - 10 - - - -
24/07:00pm 27.4 NE 9 15 1010.8 - 0.0 - - 10 - - - -
24/06:30pm 27.9 NE 9 13 1010.5 - 0.0 - - 10 - - - -
24/06:00pm 28.3 NE 10 14 1010.1 - 0.0 - - 10 - - - -
24/05:30pm 29.2 NE 9 15 1009.9 - 0.0 - - 10 - - - -
24/05:00pm 30.5 NE 10 13 1009.7 - 0.0 - - 10 - - - -
24/04:30pm 30.7 ENE 12 16 1009.7 - 0.0 - - 10 - - - -
24/04:00pm 30.2 NE 11 19 1009.9 - 0.0 - - 10 - - - -
24/03:30pm 30.2 NE 15 21 1010.2 - 0.0 - - 10 - - - -
24/03:00pm 30.5 NE 14 20 1010.4 - 0.0 - - 10 - - - -
24/02:30pm 31.5 NE 13 19 1010.5 - 0.0 - - 10 - - - -
24/02:00pm 31.3 NE 14 21 1010.9 - 0.0 - - 10 - - - -
24/01:30pm 32.1 NE 12 18 1011.4 - 0.0 - - 10 - - - -
24/01:00pm 31.2 NE 13 22 1012.0 - 0.0 - - 10 - - - -
24/12:30pm 31.1 ENE 14 21 1012.5 - 0.0 - - 10 - - - -
24/12:00pm 31.1 ENE 14 19 1013.1 - 0.0 - - 10 - - - -
24/11:30am 31.4 NE 12 18 1013.6 - 0.0 - - 10 - - - -
24/11:00am 30.9 ENE 13 19 1013.9 - 0.0 - - 10 - - - -
24/10:30am 29.9 ENE 8 20 1014.2 - 0.0 - Partly cloudy 10 - - - -
24/10:00am 29.4 ENE 3 17 1014.4 - 0.0 - Partly cloudy 10 - - - -
24/09:30am 29.2 ENE 2 15 1014.6 - 0.0 - Partly cloudy 10 - - - -
24/09:00am 28.0 E 3 16 1014.5 - 0.0 - Partly cloudy 10 - - - -
24/08:30am 27.5 E 2 15 1014.4 - 0.0 - Partly cloudy 10 - - - -
24/08:00am 26.5 E 2 13 1014.1 - 0.0 - - 10 - - - -
24/07:30am 25.1 CALM 0 0 1013.6 - 0.0 - - 10 - - - -
24/07:00am 23.5 CALM 0 0 1013.3 - 0.0 - - 10 - - - -
24/06:30am 22.3 CALM 0 0 1013.3 - 0.0 - - 10 - - - -
24/06:00am 22.1 CALM 0 0 1012.9 - 0.0 - - 10 - - - -
24/05:30am 22.4 CALM 0 0 1012.5 - 0.0 - - 10 - - - -
24/05:00am 22.9 CALM 0 0 1011.9 - 0.0 - - 10 - - - -
24/04:30am 23.1 CALM 0 11 1011.8 - 0.0 - - 10 - - - -
24/04:00am 23.2 CALM 0 0 1011.7 - 0.0 - - 10 - - - -
24/03:30am 23.3 CALM 0 0 1011.8 - 0.0 - - 10 - - - -
24/03:00am 23.4 CALM 0 0 1011.8 - 0.0 - - 10 - - - -
24/02:30am 23.4 CALM 0 0 1012.1 - 0.0 - - 10 - - - -
24/02:00am 24.0 CALM 0 0 1012.5 - 0.0 - - 10 - - - -
24/01:30am 23.6 CALM 0 0 1012.7 - 0.0 - - 10 - - - -
24/01:00am 24.0 CALM 0 0 1012.9 - 0.0 - - 10 - - - -
24/12:30am 25.5 CALM 0 0 1013.1 - 0.0 - - 10 - - - -
24/12:00am 26.0 CALM 0 0 1013.6 - 0.0 - - 10 - - - -
 
Date/Time
CST
Temp

°C
Wind Pressure Rain
since 9am
mm
Weather Cloud Vis
km
Sea
Height
m
Swell
Dir
 
Speed
knots
Gust
knots
hPa Trend Height
m
Period
s
Dir
23/11:30pm 26.5 CALM 0 0 1013.9 - 0.0 - - 10 - - - -
23/11:00pm 26.8 CALM 0 0 1013.9 - 0.0 - - 10 - - - -
23/10:30pm 27.0 CALM 0 0 1013.9 - 0.0 - - 10 - - - -
23/10:00pm 27.2 CALM 0 10 1013.8 - 0.0 - - 10 - - - -
23/09:30pm 27.3 ENE 1 12 1013.5 - 0.0 - Partly cloudy 10 - - - -
23/09:00pm 27.4 ENE 1 14 1013.0 - 0.0 - Mostly clear 10 - - - -
23/08:30pm 27.3 CALM 0 3 1012.5 - 0.0 - - 10 - - - -
23/08:00pm 27.3 CALM 0 0 1012.1 - 0.0 - - 10 - - - -
23/07:30pm 27.5 CALM 0 1 1011.7 - 0.0 - - 10 - - - -
23/07:00pm 27.5 CALM 0 0 1011.2 - 0.0 - - 10 - - - -
23/06:30pm 27.7 CALM 0 13 1010.9 - 0.0 - - 10 - - - -
23/06:00pm 28.4 NE 1 13 1010.5 - 0.0 - - 10 - - - -
23/05:30pm 28.6 NNE 4 15 1010.1 - 0.0 - - 10 - - - -
23/05:00pm 29.1 NNE 6 16 1009.9 - 0.0 - - 10 - - - -
23/04:30pm 30.0 NNE 5 17 1009.8 - 0.0 - - 10 - - - -
23/04:00pm 30.2 NNE 8 17 1009.9 - 0.0 - - 10 - - - -
23/03:30pm 31.4 NNE 3 16 1010.0 - 0.0 - - 10 - - - -
23/03:00pm 30.9 NNE 8 17 1010.1 - 0.0 - - 10 - - - -
23/02:30pm 31.5 NNE 9 18 1010.4 - 0.0 - - 10 - - - -
23/02:00pm 30.9 NNE 9 17 1010.8 - 0.0 - - 10 - - - -
23/01:30pm 31.7 NE 13 17 1011.2 - 0.0 - - 10 - - - -

Other Formats:

Comma delimited format used in spreadsheet applications
http://www.bom.gov.au/fwo/IDD60701/IDD60701.95142.axf

JavaScript Object Notation format (JSON) in row-major order
http://www.bom.gov.au/fwo/IDD60701/IDD60701.95142.json